Terminal Aerodrome Forecast
Issued by NWS

Current Version | Previous Version | Text Only | Print | Product List | Glossary On
Versions: 1 2 3 4 5 6 7 8 9 10 11 12
000
FTUS41 KLWX 282300
TAFMTN
TAF
KMTN 282327Z 2900/2924 30012G20KT P6SM BKN050
     FM290200 32009KT P6SM BKN090
     FM291000 32006KT P6SM SCT090
      AMD NOT SKED 2902/2912=

USA.gov is the U.S. government's official web portal to all federal, state and local government web resources and services.